LIC0209 LEBL-LECO
Flight info
| Callsign | LIC0209 |
|---|---|
| Flight time | 1h 52m |
| Altitude | 32000 |
| Route | LOBAR N725 LOMDA |
| Aircraft | A320/M-SDE3FGHIRWY/LB1 |
Departure
| Time | 2026-05-04 17:08 |
|---|---|
| Airport | Josep Tarradellas Barcelona-El Prat Airport (LEBL) |
Arrival
| Time | 2026-05-04 19:01 |
|---|---|
| Airport | A Coruña Airport (LECO) |
| Time | Latitude | Longitude | Altitude | Speed | Heading |
|---|---|---|---|---|---|
| 2026-05-04 16:46 | 41.28978 | 2.07901 | 19 ft | 0 kts | 335° |
| 2026-05-04 16:55 | 41.28974 | 2.07903 | 19 ft | 3 kts | 335° |
| 2026-05-04 16:56 | 41.28957 | 2.07913 | 20 ft | 1 kts | 335° |
| 2026-05-04 16:58 | 41.28917 | 2.07926 | 20 ft | 2 kts | 13° |
| 2026-05-04 16:58 | 41.28901 | 2.07920 | 20 ft | 2 kts | 55° |
| 2026-05-04 16:59 | 41.28899 | 2.07917 | 22 ft | 0 kts | 66° |
| 2026-05-04 17:00 | 41.28904 | 2.07932 | 20 ft | 0 kts | 66° |
| 2026-05-04 17:02 | 41.28895 | 2.07992 | 20 ft | 7 kts | 131° |
| 2026-05-04 17:03 | 41.28852 | 2.08026 | 20 ft | 7 kts | 153° |
| 2026-05-04 17:03 | 41.28802 | 2.08057 | 18 ft | 9 kts | 156° |
| 2026-05-04 17:03 | 41.28748 | 2.08202 | 15 ft | 10 kts | 114° |
| 2026-05-04 17:04 | 41.28732 | 2.08340 | 16 ft | 9 kts | 67° |
| 2026-05-04 17:04 | 41.28786 | 2.08500 | 18 ft | 16 kts | 65° |
| 2026-05-04 17:05 | 41.28899 | 2.08828 | 17 ft | 21 kts | 65° |
| 2026-05-04 17:05 | 41.29042 | 2.09249 | 17 ft | 28 kts | 65° |
| 2026-05-04 17:06 | 41.29130 | 2.09508 | 17 ft | 16 kts | 65° |
| 2026-05-04 17:06 | 41.29190 | 2.09678 | 17 ft | 22 kts | 65° |
| 2026-05-04 17:07 | 41.29329 | 2.10060 | 17 ft | 22 kts | 68° |
| 2026-05-04 17:07 | 41.29364 | 2.10192 | 18 ft | 20 kts | 84° |
| 2026-05-04 17:07 | 41.29239 | 2.10330 | 14 ft | 16 kts | 177° |
| 2026-05-04 17:07 | 41.29211 | 2.10307 | 16 ft | 0 kts | 248° |
| 2026-05-04 17:08 | 41.29148 | 2.10112 | 17 ft | 69 kts | 245° |
| 2026-05-04 17:08 | 41.28347 | 2.07825 | 590 ft | 166 kts | 244° |
| 2026-05-04 17:08 | 41.27749 | 2.06506 | 1549 ft | 167 kts | 221° |
| 2026-05-04 17:09 | 41.26672 | 2.05840 | 2392 ft | 182 kts | 195° |
| 2026-05-04 17:09 | 41.25351 | 2.05480 | 3113 ft | 205 kts | 191° |
| 2026-05-04 17:09 | 41.23928 | 2.05157 | 4361 ft | 208 kts | 191° |
| 2026-05-04 17:10 | 41.21007 | 2.04412 | 6513 ft | 217 kts | 195° |
| 2026-05-04 17:10 | 41.17262 | 2.01214 | 9796 ft | 229 kts | 232° |
| 2026-05-04 17:11 | 41.16282 | 1.99537 | 10891 ft | 232 kts | 232° |
| 2026-05-04 17:11 | 41.15289 | 1.97832 | 11950 ft | 235 kts | 232° |
| 2026-05-04 17:11 | 41.13374 | 1.94253 | 13979 ft | 244 kts | 243° |
| 2026-05-04 17:12 | 41.12804 | 1.92057 | 14704 ft | 257 kts | 250° |
| 2026-05-04 17:12 | 41.11785 | 1.87399 | 16341 ft | 276 kts | 258° |
| 2026-05-04 17:13 | 41.13902 | 1.79134 | 17565 ft | 350 kts | 291° |
| 2026-05-04 17:14 | 41.17238 | 1.70318 | 19901 ft | 361 kts | 291° |
| 2026-05-04 17:14 | 41.18356 | 1.67309 | 20670 ft | 364 kts | 290° |
| 2026-05-04 17:14 | 41.20591 | 1.61214 | 22160 ft | 370 kts | 290° |
| 2026-05-04 17:15 | 41.21719 | 1.58122 | 22893 ft | 373 kts | 290° |
| 2026-05-04 17:15 | 41.24001 | 1.51864 | 24258 ft | 380 kts | 290° |
| 2026-05-04 17:16 | 41.26323 | 1.45492 | 25356 ft | 387 kts | 290° |
| 2026-05-04 17:16 | 41.29877 | 1.35718 | 27012 ft | 396 kts | 289° |
| 2026-05-04 17:17 | 41.31077 | 1.32408 | 27542 ft | 399 kts | 289° |
| 2026-05-04 17:17 | 41.34735 | 1.22297 | 29130 ft | 409 kts | 289° |
| 2026-05-04 17:18 | 41.35958 | 1.18908 | 29592 ft | 414 kts | 289° |
| 2026-05-04 17:18 | 41.38464 | 1.11947 | 30452 ft | 421 kts | 290° |
| 2026-05-04 17:19 | 41.41008 | 1.04860 | 31176 ft | 427 kts | 290° |
| 2026-05-04 17:19 | 41.43577 | 0.97692 | 31862 ft | 430 kts | 289° |
| 2026-05-04 17:20 | 41.46087 | 0.90722 | 31909 ft | 403 kts | 289° |
| 2026-05-04 17:20 | 41.49657 | 0.80732 | 31912 ft | 395 kts | 289° |
| 2026-05-04 17:21 | 41.54350 | 0.67458 | 31933 ft | 396 kts | 289° |
| 2026-05-04 17:22 | 41.57404 | 0.61240 | 31951 ft | 407 kts | 302° |
| 2026-05-04 17:23 | 41.64461 | 0.49380 | 31924 ft | 408 kts | 301° |
| 2026-05-04 17:24 | 41.69740 | 0.40431 | 31924 ft | 408 kts | 301° |
| 2026-05-04 17:24 | 41.74723 | 0.31278 | 31948 ft | 399 kts | 290° |
| 2026-05-04 17:25 | 41.75760 | 0.27873 | 31945 ft | 392 kts | 282° |
| 2026-05-04 17:26 | 41.79021 | 0.13945 | 31937 ft | 393 kts | 282° |
| 2026-05-04 17:27 | 41.83143 | -0.03607 | 31945 ft | 396 kts | 282° |
| 2026-05-04 17:28 | 41.84857 | -0.10990 | 31944 ft | 396 kts | 282° |
| 2026-05-04 17:29 | 41.89695 | -0.31947 | 31939 ft | 395 kts | 282° |
| 2026-05-04 17:31 | 41.93753 | -0.49575 | 31937 ft | 395 kts | 282° |
| 2026-05-04 17:32 | 41.97768 | -0.67220 | 31939 ft | 395 kts | 282° |
| 2026-05-04 17:33 | 42.00972 | -0.81392 | 31963 ft | 396 kts | 282° |
| 2026-05-04 17:34 | 42.03895 | -0.94374 | 31956 ft | 396 kts | 282° |
| 2026-05-04 17:35 | 42.07840 | -1.12109 | 31954 ft | 396 kts | 282° |
| 2026-05-04 17:36 | 42.09406 | -1.19201 | 31984 ft | 395 kts | 282° |
| 2026-05-04 17:36 | 42.10970 | -1.26286 | 31988 ft | 394 kts | 282° |
| 2026-05-04 17:37 | 42.12526 | -1.33353 | 31988 ft | 393 kts | 282° |
| 2026-05-04 17:37 | 42.14077 | -1.40410 | 31988 ft | 393 kts | 282° |
| 2026-05-04 17:38 | 42.15618 | -1.47468 | 31987 ft | 393 kts | 282° |
| 2026-05-04 17:38 | 42.17158 | -1.54527 | 32010 ft | 392 kts | 282° |
| 2026-05-04 17:39 | 42.19466 | -1.65102 | 32010 ft | 392 kts | 282° |
| 2026-05-04 17:39 | 42.20997 | -1.72153 | 31993 ft | 392 kts | 282° |
| 2026-05-04 17:40 | 42.22516 | -1.79217 | 31983 ft | 392 kts | 282° |
| 2026-05-04 17:40 | 42.24030 | -1.86297 | 31982 ft | 392 kts | 282° |
| 2026-05-04 17:41 | 42.25546 | -1.93368 | 32000 ft | 392 kts | 282° |
| 2026-05-04 17:41 | 42.27055 | -2.00441 | 32002 ft | 392 kts | 282° |
| 2026-05-04 17:42 | 42.28560 | -2.07512 | 32002 ft | 391 kts | 282° |
| 2026-05-04 17:42 | 42.30061 | -2.14571 | 31999 ft | 391 kts | 282° |
| 2026-05-04 17:43 | 42.31550 | -2.21635 | 31998 ft | 391 kts | 282° |
| 2026-05-04 17:43 | 42.33034 | -2.28695 | 31994 ft | 390 kts | 282° |
| 2026-05-04 17:44 | 42.34501 | -2.35709 | 32000 ft | 390 kts | 282° |
| 2026-05-04 17:44 | 42.35977 | -2.42761 | 31994 ft | 390 kts | 282° |
| 2026-05-04 17:45 | 42.37449 | -2.49815 | 31995 ft | 390 kts | 282° |
| 2026-05-04 17:45 | 42.38917 | -2.56877 | 31997 ft | 391 kts | 282° |
| 2026-05-04 17:46 | 42.40386 | -2.63971 | 31982 ft | 392 kts | 282° |
| 2026-05-04 17:46 | 42.41857 | -2.71090 | 32005 ft | 393 kts | 282° |
| 2026-05-04 17:47 | 42.43322 | -2.78221 | 32003 ft | 393 kts | 282° |
| 2026-05-04 17:47 | 42.44780 | -2.85362 | 32004 ft | 393 kts | 282° |
| 2026-05-04 17:48 | 42.45826 | -2.92584 | 32003 ft | 390 kts | 275° |
| 2026-05-04 17:48 | 42.46627 | -2.99860 | 32000 ft | 390 kts | 275° |
| 2026-05-04 17:49 | 42.47426 | -3.07130 | 32031 ft | 390 kts | 275° |
| 2026-05-04 17:49 | 42.48214 | -3.14386 | 32032 ft | 388 kts | 274° |
| 2026-05-04 17:50 | 42.48988 | -3.21613 | 32030 ft | 387 kts | 274° |
| 2026-05-04 17:50 | 42.49761 | -3.28809 | 32024 ft | 386 kts | 274° |
| 2026-05-04 17:51 | 42.50532 | -3.35997 | 32016 ft | 385 kts | 274° |
| 2026-05-04 17:51 | 42.51287 | -3.43129 | 32010 ft | 385 kts | 274° |
| 2026-05-04 17:52 | 42.52038 | -3.50321 | 32027 ft | 385 kts | 274° |
| 2026-05-04 17:52 | 42.52787 | -3.57500 | 32020 ft | 384 kts | 274° |
| 2026-05-04 17:53 | 42.53532 | -3.64677 | 32015 ft | 384 kts | 274° |
| 2026-05-04 17:53 | 42.54269 | -3.71837 | 32008 ft | 383 kts | 274° |
| 2026-05-04 17:54 | 42.55007 | -3.79001 | 32011 ft | 384 kts | 274° |
| 2026-05-04 17:54 | 42.55744 | -3.86171 | 32034 ft | 384 kts | 274° |
| 2026-05-04 17:55 | 42.56477 | -3.93361 | 32017 ft | 385 kts | 274° |
| 2026-05-04 17:55 | 42.57193 | -4.00559 | 32010 ft | 385 kts | 273° |
| 2026-05-04 17:56 | 42.57908 | -4.07767 | 32008 ft | 386 kts | 274° |
| 2026-05-04 17:56 | 42.58629 | -4.14985 | 32007 ft | 386 kts | 274° |
| 2026-05-04 17:57 | 42.59351 | -4.22207 | 32007 ft | 386 kts | 273° |
| 2026-05-04 17:57 | 42.60057 | -4.29429 | 32006 ft | 386 kts | 273° |
| 2026-05-04 17:58 | 42.60756 | -4.36667 | 32010 ft | 387 kts | 273° |
| 2026-05-04 17:58 | 42.61453 | -4.43900 | 32014 ft | 387 kts | 273° |
| 2026-05-04 17:59 | 42.62147 | -4.51135 | 32016 ft | 387 kts | 273° |
| 2026-05-04 18:00 | 42.63186 | -4.61995 | 32030 ft | 387 kts | 273° |
| 2026-05-04 18:00 | 42.63873 | -4.69243 | 32023 ft | 387 kts | 273° |
| 2026-05-04 18:01 | 42.64548 | -4.76435 | 32017 ft | 386 kts | 273° |
| 2026-05-04 18:01 | 42.65215 | -4.83674 | 32012 ft | 386 kts | 273° |
| 2026-05-04 18:02 | 42.66215 | -4.94536 | 31996 ft | 386 kts | 273° |
| 2026-05-04 18:02 | 42.66878 | -5.01771 | 32009 ft | 386 kts | 273° |
| 2026-05-04 18:03 | 42.67535 | -5.09003 | 32012 ft | 385 kts | 273° |
| 2026-05-04 18:03 | 42.68181 | -5.16221 | 32006 ft | 385 kts | 273° |
| 2026-05-04 18:04 | 42.68813 | -5.23443 | 31993 ft | 385 kts | 273° |
| 2026-05-04 18:05 | 42.69765 | -5.34275 | 32003 ft | 384 kts | 273° |
| 2026-05-04 18:05 | 42.70393 | -5.41485 | 31991 ft | 384 kts | 274° |
| 2026-05-04 18:06 | 42.71341 | -5.52315 | 31991 ft | 385 kts | 274° |
| 2026-05-04 18:06 | 42.71971 | -5.59541 | 31984 ft | 385 kts | 274° |
| 2026-05-04 18:07 | 42.72594 | -5.66765 | 31967 ft | 385 kts | 273° |
| 2026-05-04 18:07 | 42.73210 | -5.73992 | 31975 ft | 385 kts | 274° |
| 2026-05-04 18:08 | 42.73819 | -5.81234 | 31979 ft | 385 kts | 274° |
| 2026-05-04 18:08 | 42.74426 | -5.88476 | 31981 ft | 385 kts | 274° |
| 2026-05-04 18:09 | 42.75628 | -6.02971 | 31994 ft | 386 kts | 274° |
| 2026-05-04 18:10 | 42.76221 | -6.10230 | 32029 ft | 386 kts | 274° |
| 2026-05-04 18:10 | 42.76814 | -6.17481 | 32025 ft | 385 kts | 274° |
| 2026-05-04 18:11 | 42.77397 | -6.24741 | 32035 ft | 386 kts | 274° |
| 2026-05-04 18:11 | 42.77967 | -6.32008 | 32032 ft | 386 kts | 274° |
| 2026-05-04 18:12 | 42.78531 | -6.39269 | 32034 ft | 386 kts | 273° |
| 2026-05-04 18:12 | 42.79093 | -6.46487 | 32032 ft | 386 kts | 273° |
| 2026-05-04 18:13 | 42.79657 | -6.53749 | 32039 ft | 386 kts | 274° |
| 2026-05-04 18:14 | 42.80506 | -6.64656 | 32037 ft | 386 kts | 274° |
| 2026-05-04 18:14 | 42.81057 | -6.71927 | 32042 ft | 386 kts | 274° |
| 2026-05-04 18:15 | 42.82161 | -6.86499 | 32061 ft | 388 kts | 274° |
| 2026-05-04 18:16 | 42.82696 | -6.93818 | 32061 ft | 389 kts | 274° |
| 2026-05-04 18:16 | 42.83240 | -7.01285 | 32075 ft | 410 kts | 274° |
| 2026-05-04 18:17 | 42.83814 | -7.09181 | 32068 ft | 423 kts | 274° |
| 2026-05-04 18:17 | 42.84103 | -7.13178 | 32070 ft | 424 kts | 274° |
| 2026-05-04 18:18 | 42.84980 | -7.25185 | 32076 ft | 426 kts | 277° |
| 2026-05-04 18:18 | 42.85705 | -7.29100 | 32072 ft | 428 kts | 289° |
| 2026-05-04 18:18 | 42.86975 | -7.32679 | 31625 ft | 425 kts | 299° |
| 2026-05-04 18:18 | 42.88698 | -7.35968 | 30676 ft | 427 kts | 303° |
| 2026-05-04 18:19 | 42.92255 | -7.42429 | 28793 ft | 419 kts | 304° |
| 2026-05-04 18:19 | 42.93986 | -7.45564 | 27446 ft | 409 kts | 304° |
| 2026-05-04 18:19 | 42.95679 | -7.48651 | 26106 ft | 402 kts | 303° |
| 2026-05-04 18:20 | 42.97333 | -7.51688 | 24830 ft | 396 kts | 303° |
| 2026-05-04 18:20 | 42.98958 | -7.54687 | 23605 ft | 390 kts | 303° |
| 2026-05-04 18:20 | 43.00558 | -7.57648 | 22190 ft | 386 kts | 303° |
| 2026-05-04 18:20 | 43.02136 | -7.60570 | 20935 ft | 379 kts | 304° |
| 2026-05-04 18:21 | 43.03679 | -7.63429 | 19850 ft | 368 kts | 304° |
| 2026-05-04 18:21 | 43.05177 | -7.66205 | 18961 ft | 356 kts | 304° |
| 2026-05-04 18:21 | 43.06601 | -7.68837 | 18521 ft | 334 kts | 304° |
| 2026-05-04 18:21 | 43.07946 | -7.71326 | 17975 ft | 317 kts | 304° |
| 2026-05-04 18:22 | 43.09224 | -7.73695 | 17476 ft | 306 kts | 304° |
| 2026-05-04 18:22 | 43.10483 | -7.76043 | 16997 ft | 306 kts | 304° |
| 2026-05-04 18:22 | 43.11738 | -7.78381 | 16522 ft | 304 kts | 304° |
| 2026-05-04 18:22 | 43.12989 | -7.80710 | 16046 ft | 304 kts | 304° |
| 2026-05-04 18:23 | 43.14242 | -7.83046 | 15561 ft | 305 kts | 304° |
| 2026-05-04 18:23 | 43.15075 | -7.84597 | 15239 ft | 305 kts | 304° |
| 2026-05-04 18:23 | 43.16333 | -7.86941 | 14774 ft | 306 kts | 304° |
| 2026-05-04 18:23 | 43.17593 | -7.89289 | 14283 ft | 307 kts | 304° |
| 2026-05-04 18:24 | 43.18860 | -7.91649 | 13781 ft | 307 kts | 304° |
| 2026-05-04 18:24 | 43.20124 | -7.94006 | 13250 ft | 307 kts | 304° |
| 2026-05-04 18:24 | 43.21385 | -7.96359 | 12743 ft | 305 kts | 304° |
| 2026-05-04 18:24 | 43.22638 | -7.98705 | 12237 ft | 304 kts | 304° |
| 2026-05-04 18:25 | 43.23883 | -8.01042 | 11715 ft | 301 kts | 304° |
| 2026-05-04 18:25 | 43.25084 | -8.03297 | 11222 ft | 286 kts | 304° |
| 2026-05-04 18:25 | 43.26244 | -8.05475 | 10740 ft | 279 kts | 304° |
| 2026-05-04 18:25 | 43.27381 | -8.07610 | 10313 ft | 274 kts | 304° |
| 2026-05-04 18:26 | 43.28502 | -8.09715 | 10248 ft | 274 kts | 305° |
| 2026-05-04 18:26 | 43.29630 | -8.11835 | 10141 ft | 275 kts | 304° |
| 2026-05-04 18:26 | 43.30756 | -8.13954 | 10023 ft | 275 kts | 304° |
| 2026-05-04 18:26 | 43.31891 | -8.16091 | 9430 ft | 279 kts | 305° |
| 2026-05-04 18:27 | 43.33023 | -8.18220 | 8970 ft | 271 kts | 305° |
| 2026-05-04 18:27 | 43.34128 | -8.20301 | 8191 ft | 271 kts | 305° |
| 2026-05-04 18:27 | 43.35222 | -8.22370 | 7478 ft | 265 kts | 304° |
| 2026-05-04 18:27 | 43.36303 | -8.24415 | 6713 ft | 263 kts | 305° |
| 2026-05-04 18:28 | 43.37370 | -8.26432 | 5884 ft | 259 kts | 305° |
| 2026-05-04 18:28 | 43.38570 | -8.28224 | 5228 ft | 251 kts | 325° |
| 2026-05-04 18:28 | 43.40028 | -8.29304 | 5079 ft | 225 kts | 324° |
| 2026-05-04 18:28 | 43.40923 | -8.30890 | 4986 ft | 206 kts | 283° |
| 2026-05-04 18:29 | 43.40736 | -8.32729 | 4931 ft | 195 kts | 238° |
| 2026-05-04 18:29 | 43.39650 | -8.33724 | 4882 ft | 194 kts | 191° |
| 2026-05-04 18:29 | 43.38307 | -8.33708 | 4839 ft | 193 kts | 184° |
| 2026-05-04 18:29 | 43.37026 | -8.33720 | 4814 ft | 170 kts | 185° |
| 2026-05-04 18:30 | 43.35051 | -8.34136 | 4753 ft | 129 kts | 206° |
| 2026-05-04 18:30 | 43.34239 | -8.34617 | 4718 ft | 126 kts | 211° |
| 2026-05-04 18:30 | 43.33454 | -8.35165 | 4690 ft | 127 kts | 214° |
| 2026-05-04 18:31 | 43.32689 | -8.35743 | 4669 ft | 127 kts | 216° |
| 2026-05-04 18:31 | 43.31919 | -8.36347 | 4625 ft | 128 kts | 216° |
| 2026-05-04 18:31 | 43.31153 | -8.36962 | 4601 ft | 127 kts | 217° |
| 2026-05-04 18:31 | 43.30394 | -8.37577 | 4568 ft | 127 kts | 217° |
| 2026-05-04 18:32 | 43.29637 | -8.38196 | 4536 ft | 127 kts | 217° |
| 2026-05-04 18:32 | 43.28878 | -8.38817 | 4508 ft | 127 kts | 217° |
| 2026-05-04 18:32 | 43.28118 | -8.39439 | 4467 ft | 127 kts | 217° |
| 2026-05-04 18:32 | 43.27359 | -8.40062 | 4442 ft | 127 kts | 217° |
| 2026-05-04 18:33 | 43.26618 | -8.40710 | 4385 ft | 125 kts | 227° |
| 2026-05-04 18:33 | 43.26235 | -8.41691 | 4259 ft | 115 kts | 267° |
| 2026-05-04 18:33 | 43.26416 | -8.42740 | 4205 ft | 116 kts | 304° |
| 2026-05-04 18:33 | 43.27078 | -8.43370 | 4176 ft | 121 kts | 343° |
| 2026-05-04 18:34 | 43.27906 | -8.43204 | 4137 ft | 127 kts | 25° |
| 2026-05-04 18:34 | 43.28718 | -8.42372 | 4202 ft | 164 kts | 31° |
| 2026-05-04 18:34 | 43.29712 | -8.41389 | 4171 ft | 183 kts | 31° |
| 2026-05-04 18:34 | 43.30761 | -8.40352 | 4125 ft | 187 kts | 31° |
| 2026-05-04 18:35 | 43.31819 | -8.39301 | 4061 ft | 189 kts | 31° |
| 2026-05-04 18:35 | 43.32885 | -8.38239 | 4013 ft | 190 kts | 32° |
| 2026-05-04 18:35 | 43.33959 | -8.37166 | 3970 ft | 191 kts | 31° |
| 2026-05-04 18:35 | 43.35032 | -8.36093 | 3921 ft | 191 kts | 32° |
| 2026-05-04 18:36 | 43.36103 | -8.35019 | 3881 ft | 191 kts | 32° |
| 2026-05-04 18:36 | 43.37176 | -8.33943 | 3836 ft | 191 kts | 32° |
| 2026-05-04 18:36 | 43.38256 | -8.32858 | 3793 ft | 193 kts | 32° |
| 2026-05-04 18:36 | 43.39338 | -8.31769 | 3749 ft | 192 kts | 32° |
| 2026-05-04 18:37 | 43.40409 | -8.30692 | 3698 ft | 183 kts | 32° |
| 2026-05-04 18:37 | 43.41416 | -8.29679 | 3651 ft | 179 kts | 31° |
| 2026-05-04 18:37 | 43.42426 | -8.28669 | 3614 ft | 179 kts | 32° |
| 2026-05-04 18:37 | 43.43434 | -8.27658 | 3572 ft | 179 kts | 32° |
| 2026-05-04 18:38 | 43.44441 | -8.26649 | 3534 ft | 179 kts | 32° |
| 2026-05-04 18:38 | 43.45449 | -8.25636 | 3496 ft | 180 kts | 31° |
| 2026-05-04 18:38 | 43.46456 | -8.24624 | 3455 ft | 179 kts | 32° |
| 2026-05-04 18:38 | 43.47459 | -8.23615 | 3415 ft | 179 kts | 32° |
| 2026-05-04 18:39 | 43.48402 | -8.22532 | 3360 ft | 174 kts | 48° |
| 2026-05-04 18:39 | 43.48826 | -8.21053 | 3321 ft | 163 kts | 84° |
| 2026-05-04 18:39 | 43.48638 | -8.19614 | 3300 ft | 147 kts | 117° |
| 2026-05-04 18:39 | 43.48021 | -8.18566 | 3265 ft | 138 kts | 148° |
| 2026-05-04 18:40 | 43.47177 | -8.18047 | 3233 ft | 130 kts | 176° |
| 2026-05-04 18:40 | 43.46303 | -8.18079 | 3203 ft | 123 kts | 201° |
| 2026-05-04 18:40 | 43.45553 | -8.18574 | 3185 ft | 117 kts | 224° |
| 2026-05-04 18:40 | 43.45024 | -8.19396 | 3163 ft | 114 kts | 242° |
| 2026-05-04 18:41 | 43.44582 | -8.20309 | 3128 ft | 115 kts | 240° |
| 2026-05-04 18:41 | 43.44136 | -8.21219 | 3108 ft | 115 kts | 240° |
| 2026-05-04 18:41 | 43.43689 | -8.22134 | 3077 ft | 115 kts | 240° |
| 2026-05-04 18:41 | 43.43241 | -8.23049 | 3015 ft | 115 kts | 241° |
| 2026-05-04 18:42 | 43.42797 | -8.23958 | 2954 ft | 115 kts | 240° |
| 2026-05-04 18:42 | 43.42355 | -8.24866 | 2864 ft | 115 kts | 240° |
| 2026-05-04 18:42 | 43.41907 | -8.25786 | 2774 ft | 115 kts | 240° |
| 2026-05-04 18:42 | 43.41463 | -8.26700 | 2678 ft | 115 kts | 239° |
| 2026-05-04 18:43 | 43.41021 | -8.27610 | 2578 ft | 114 kts | 239° |
| 2026-05-04 18:43 | 43.40580 | -8.28515 | 2487 ft | 114 kts | 240° |
| 2026-05-04 18:43 | 43.40114 | -8.29399 | 2409 ft | 116 kts | 229° |
| 2026-05-04 18:43 | 43.39426 | -8.30004 | 2267 ft | 117 kts | 221° |
| 2026-05-04 18:44 | 43.38749 | -8.30622 | 2135 ft | 117 kts | 218° |
| 2026-05-04 18:44 | 43.38295 | -8.31020 | 2035 ft | 116 kts | 217° |
| 2026-05-04 18:44 | 43.37385 | -8.31796 | 1825 ft | 115 kts | 217° |
| 2026-05-04 18:44 | 43.36700 | -8.32370 | 1663 ft | 115 kts | 217° |
| 2026-05-04 18:45 | 43.36016 | -8.32940 | 1486 ft | 116 kts | 217° |
| 2026-05-04 18:45 | 43.35315 | -8.33521 | 1333 ft | 118 kts | 216° |
| 2026-05-04 18:45 | 43.34608 | -8.34104 | 1169 ft | 119 kts | 215° |
| 2026-05-04 18:45 | 43.33891 | -8.34695 | 1017 ft | 120 kts | 217° |
| 2026-05-04 18:46 | 43.33182 | -8.35277 | 855 ft | 119 kts | 216° |
| 2026-05-04 18:46 | 43.32480 | -8.35855 | 695 ft | 116 kts | 218° |
| 2026-05-04 18:46 | 43.31785 | -8.36426 | 538 ft | 118 kts | 216° |
| 2026-05-04 18:46 | 43.31080 | -8.36996 | 390 ft | 117 kts | 216° |
| 2026-05-04 18:47 | 43.30422 | -8.37608 | 428 ft | 113 kts | 217° |
| 2026-05-04 18:47 | 43.29683 | -8.38356 | 1202 ft | 143 kts | 216° |
| 2026-05-04 18:47 | 43.28805 | -8.39139 | 2316 ft | 160 kts | 215° |
| 2026-05-04 18:47 | 43.27800 | -8.39936 | 2997 ft | 176 kts | 214° |
| 2026-05-04 18:48 | 43.26687 | -8.40777 | 3478 ft | 189 kts | 210° |
| 2026-05-04 18:48 | 43.25379 | -8.41081 | 3529 ft | 198 kts | 175° |
| 2026-05-04 18:48 | 43.24154 | -8.40238 | 3536 ft | 207 kts | 135° |
| 2026-05-04 18:48 | 43.23537 | -8.38467 | 3533 ft | 207 kts | 94° |
| 2026-05-04 18:49 | 43.23829 | -8.36597 | 3536 ft | 200 kts | 55° |
| 2026-05-04 18:49 | 43.24838 | -8.35385 | 3546 ft | 191 kts | 20° |
| 2026-05-04 18:49 | 43.26073 | -8.34730 | 3533 ft | 190 kts | 17° |
| 2026-05-04 18:49 | 43.27295 | -8.34092 | 3539 ft | 191 kts | 16° |
| 2026-05-04 18:50 | 43.28556 | -8.33429 | 3535 ft | 192 kts | 16° |
| 2026-05-04 18:50 | 43.29791 | -8.32777 | 3536 ft | 193 kts | 16° |
| 2026-05-04 18:50 | 43.31043 | -8.32113 | 3542 ft | 193 kts | 16° |
| 2026-05-04 18:50 | 43.32296 | -8.31449 | 3536 ft | 193 kts | 17° |
| 2026-05-04 18:51 | 43.33549 | -8.30784 | 3542 ft | 194 kts | 17° |
| 2026-05-04 18:51 | 43.34811 | -8.30114 | 3536 ft | 195 kts | 17° |
| 2026-05-04 18:51 | 43.36068 | -8.29446 | 3536 ft | 193 kts | 17° |
| 2026-05-04 18:51 | 43.37325 | -8.28779 | 3540 ft | 195 kts | 17° |
| 2026-05-04 18:52 | 43.38589 | -8.28107 | 3503 ft | 195 kts | 17° |
| 2026-05-04 18:52 | 43.39857 | -8.27432 | 3398 ft | 195 kts | 17° |
| 2026-05-04 18:52 | 43.41123 | -8.26756 | 3294 ft | 195 kts | 17° |
| 2026-05-04 18:52 | 43.42386 | -8.26080 | 3193 ft | 195 kts | 17° |
| 2026-05-04 18:53 | 43.43648 | -8.25405 | 3103 ft | 195 kts | 17° |
| 2026-05-04 18:53 | 43.44913 | -8.24731 | 3023 ft | 194 kts | 17° |
| 2026-05-04 18:53 | 43.46175 | -8.24058 | 3026 ft | 195 kts | 17° |
| 2026-05-04 18:53 | 43.47435 | -8.23384 | 3023 ft | 194 kts | 17° |
| 2026-05-04 18:54 | 43.48723 | -8.22870 | 3024 ft | 190 kts | 359° |
| 2026-05-04 18:54 | 43.49968 | -8.23261 | 3022 ft | 182 kts | 327° |
| 2026-05-04 18:54 | 43.50852 | -8.24454 | 3020 ft | 177 kts | 297° |
| 2026-05-04 18:54 | 43.51171 | -8.26066 | 3023 ft | 176 kts | 270° |
| 2026-05-04 18:55 | 43.50860 | -8.27687 | 3028 ft | 179 kts | 242° |
| 2026-05-04 18:55 | 43.48685 | -8.29166 | 3032 ft | 193 kts | 180° |
| 2026-05-04 18:55 | 43.47339 | -8.29136 | 2787 ft | 193 kts | 184° |
| 2026-05-04 18:56 | 43.46001 | -8.29164 | 2404 ft | 191 kts | 185° |
| 2026-05-04 18:56 | 43.44775 | -8.29186 | 2329 ft | 160 kts | 186° |
| 2026-05-04 18:56 | 43.43776 | -8.29202 | 2329 ft | 134 kts | 187° |
| 2026-05-04 18:56 | 43.42874 | -8.29220 | 2331 ft | 127 kts | 187° |
| 2026-05-04 18:57 | 43.41998 | -8.29239 | 2328 ft | 124 kts | 186° |
| 2026-05-04 18:57 | 43.41162 | -8.29390 | 2332 ft | 120 kts | 199° |
| 2026-05-04 18:57 | 43.40376 | -8.29738 | 2331 ft | 118 kts | 206° |
| 2026-05-04 18:57 | 43.39626 | -8.30189 | 2265 ft | 117 kts | 211° |
| 2026-05-04 18:58 | 43.38900 | -8.30693 | 2147 ft | 117 kts | 213° |
| 2026-05-04 18:58 | 43.38185 | -8.31229 | 2013 ft | 116 kts | 214° |
| 2026-05-04 18:58 | 43.37486 | -8.31776 | 1860 ft | 116 kts | 213° |
| 2026-05-04 18:58 | 43.36787 | -8.32335 | 1701 ft | 117 kts | 215° |
| 2026-05-04 18:59 | 43.36093 | -8.32896 | 1539 ft | 116 kts | 215° |
| 2026-05-04 18:59 | 43.35393 | -8.33468 | 1376 ft | 118 kts | 215° |
| 2026-05-04 18:59 | 43.34687 | -8.34045 | 1211 ft | 119 kts | 214° |
| 2026-05-04 18:59 | 43.33973 | -8.34631 | 1050 ft | 120 kts | 216° |
| 2026-05-04 19:00 | 43.33255 | -8.35220 | 864 ft | 121 kts | 216° |
| 2026-05-04 19:00 | 43.32539 | -8.35808 | 722 ft | 119 kts | 216° |
| 2026-05-04 19:00 | 43.31824 | -8.36395 | 553 ft | 120 kts | 217° |
| 2026-05-04 19:00 | 43.31109 | -8.36982 | 388 ft | 119 kts | 218° |
| 2026-05-04 19:01 | 43.30443 | -8.37560 | 336 ft | 97 kts | 212° |
| 2026-05-04 19:01 | 43.30123 | -8.37799 | 347 ft | 9 kts | 225° |
| 2026-05-04 19:01 | 43.30078 | -8.37835 | 353 ft | 19 kts | 204° |
| 2026-05-04 19:01 | 43.29969 | -8.37921 | 345 ft | 14 kts | 222° |
| 2026-05-04 19:02 | 43.29974 | -8.38045 | 343 ft | 12 kts | 315° |
| 2026-05-04 19:02 | 43.30015 | -8.38075 | 341 ft | 0 kts | 345° |
| 2026-05-04 19:03 | 43.30059 | -8.38075 | 341 ft | 9 kts | 6° |
| 2026-05-04 19:03 | 43.30105 | -8.38067 | 337 ft | 4 kts | 20° |
| 2026-05-04 19:03 | 43.30138 | -8.38061 | 341 ft | 5 kts | 345° |
| 2026-05-04 19:03 | 43.30155 | -8.38074 | 339 ft | 0 kts | 330° |